Aeroporto :
LOGIN :

Iscrizione | Disclaimer

   EN    FR    IT 

 










Sommario :    VFR   VFR Marginale   IFR   IFR Intensivo   IFR Molto Intensivo
Visibilità : 
Base nubi : 
>= 8 km
>= 3000ft
5 / 8 km
1000 / 3000 ft
1500m / 5 km
500 / 1000 ft
800 / 1500m
200 / 500 ft
< 800m
< 200 ft
Simboli :   Temporali  Nebbia  Neve Forte  Precipitazioni Forti  Vento > 20 kt
SIGMETs :   Varie  Temporali  Ghiacco  Turbolenza  Onda orograficha  Ceneri Vulcaniche






- Altitudine del aeroporto : 226 ft
- Codice IATA : BEX


EGUB - RAF Benson

ULTIMO METAR :
  • 212250Z 36002KT 9999 BKN048 08/08 Q1023 NOSIG RMK BLU BLU

METARs OBSOLETI :
  • 212220Z 35002KT 9999 BKN047 09/08 Q1023 NOSIG RMK BLU BLU
  • 212150Z 32001KT 9999 BKN046 09/08 Q1023 NOSIG RMK BLU BLU
  • 212121Z 34003KT 9999 BKN046 BKN120 09/08 Q1022 NOSIG RMK BLU BLU
  • 212050Z 33004KT 9999 OVC046 10/08 Q1023 NOSIG RMK BLU BLU
  • 212020Z 32004KT 9999 BKN046 10/08 Q1023 NOSIG RMK BLU BLU

TAF TAF EGUB
Valido dal 21 a 21 ore il 22 a 15 ore UTC


211934Z 2121/2215 31002KT 9999 BKN045
BECMG 2123/2202 5000 BR
PROB40 2201/2209 0600 FG VV///
BECMG 2208/2211 9999 NSW
ATIS : +44 1491-837766 (x7524)



MetMap, La meteo Aeronautica in un colpo d'occhio ! - Copyright ORBIFLY Dicembre 2007 - Disclaimer

ORBIFLY MET'MAP TEAM :

Programmazione e sviluppo : Alexandra Zaïnal
Concezione e sviluppo : Baudouin d'Aumeries
Co-Programmazione e sviluppo : Marc-Olivier Méhu
Supporto tecnico e logistico : Manuel Goepfert
Aiuto per la traduzione : Arnaldo La Scala

Contatto : metmap@orbifly.com




FONTI E CREDITI :

   NOAA